createdAt,value
2022-09-23T00:00:34.661Z,71.18
2022-09-23T00:03:01.743Z,70.30
2022-09-23T00:05:29.949Z,70.45
2022-09-23T00:07:57.144Z,70.03
2022-09-23T00:10:25.502Z,70.35
2022-09-23T00:12:53.055Z,71.20
2022-09-23T00:15:21.483Z,73.13
2022-09-23T00:17:48.399Z,72.38
2022-09-23T00:20:15.235Z,72.93
2022-09-23T00:22:42.026Z,73.18
2022-09-23T00:25:10.333Z,72.72
2022-09-23T00:27:37.972Z,74.15
2022-09-23T00:30:07.233Z,71.75
2022-09-23T00:32:36.595Z,71.70
2022-09-23T00:35:04.244Z,71.57
2022-09-23T00:37:31.535Z,71.20
2022-09-23T00:40:00.838Z,72.00
2022-09-23T00:42:27.683Z,71.15
2022-09-23T00:44:56.078Z,70.82
2022-09-23T00:47:29.522Z,70.70
2022-09-23T00:50:03.521Z,70.70
2022-09-23T00:52:32.223Z,70.85
2022-09-23T00:55:02.562Z,71.53
2022-09-23T00:57:31.276Z,70.70
2022-09-23T00:59:58.385Z,71.18
2022-09-23T01:02:26.202Z,70.75
2022-09-23T01:04:53.136Z,71.30
2022-09-23T01:07:21.913Z,70.80
2022-09-23T01:09:49.737Z,70.18
2022-09-23T01:12:34.477Z,70.50
2022-09-23T01:15:11.531Z,70.45
2022-09-23T01:21:37.594Z,70.32
2022-09-23T01:24:26.399Z,70.38
2022-09-23T01:27:00.980Z,69.95
2022-09-23T01:29:53.594Z,70.35
2022-09-23T01:32:32.180Z,70.22
2022-09-23T01:35:07.319Z,69.78
2022-09-23T01:37:41.043Z,70.53
2022-09-23T01:40:15.288Z,69.93
2022-09-23T01:42:47.788Z,70.38
2022-09-23T01:45:21.546Z,70.20
2022-09-23T01:47:55.219Z,69.68
2022-09-23T01:50:45.537Z,71.00
2022-09-23T01:53:19.697Z,69.97
2022-09-23T01:55:51.631Z,69.80
2022-09-23T01:58:22.290Z,69.95
2022-09-23T02:00:54.159Z,78.65
2022-09-23T02:03:27.372Z,73.43
2022-09-23T02:05:59.377Z,73.95
2022-09-23T02:08:31.926Z,73.95
2022-09-23T02:11:04.691Z,73.82
2022-09-23T02:13:40.009Z,72.88
2022-09-23T02:16:12.196Z,73.43
2022-09-23T02:18:46.210Z,73.47
2022-09-23T02:21:15.778Z,73.38
2022-09-23T02:23:45.827Z,73.20
2022-09-23T02:26:19.729Z,74.40
2022-09-23T02:28:56.037Z,80.93
2022-09-23T02:31:33.139Z,76.80
2022-09-23T02:34:10.537Z,76.35
2022-09-23T02:36:44.927Z,76.72
2022-09-23T02:39:14.466Z,78.05
2022-09-23T02:41:55.819Z,78.93
2022-09-23T02:44:24.097Z,59.95
2022-09-23T02:46:52.918Z,80.70
2022-09-23T02:49:23.872Z,81.55
2022-09-23T02:51:51.366Z,87.70
2022-09-23T02:54:20.859Z,86.60
2022-09-23T02:56:50.391Z,91.75
2022-09-23T02:59:19.565Z,96.63
2022-09-23T03:02:07.955Z,96.30
2022-09-23T03:04:50.513Z,96.50
2022-09-23T03:07:21.036Z,94.53
2022-09-23T03:09:54.673Z,95.32
2022-09-23T03:12:36.065Z,92.60
2022-09-23T03:15:16.972Z,93.47
2022-09-23T03:17:51.265Z,92.55
2022-09-23T03:20:26.159Z,90.53
2022-09-23T03:23:00.868Z,89.03
2022-09-23T03:25:33.288Z,89.55
2022-09-23T03:28:01.689Z,90.85
2022-09-23T03:30:30.852Z,90.07
2022-09-23T03:33:00.973Z,89.43
2022-09-23T03:35:33.170Z,87.30
2022-09-23T03:38:08.348Z,85.03
2022-09-23T03:40:41.929Z,87.82
2022-09-23T03:43:09.912Z,86.15
2022-09-23T03:45:36.785Z,84.45
2022-09-23T03:48:04.410Z,87.40
2022-09-23T03:50:32.614Z,89.05
2022-09-23T03:52:59.437Z,90.65
2022-09-23T03:55:26.256Z,90.55
2022-09-23T03:57:53.350Z,89.40
2022-09-23T04:00:20.359Z,88.72
2022-09-23T04:02:47.203Z,89.05
2022-09-23T04:05:14.067Z,89.47
2022-09-23T04:07:42.614Z,89.85
2022-09-23T04:10:10.205Z,89.65
2022-09-23T04:12:37.755Z,90.13
2022-09-23T04:15:05.673Z,89.00
2022-09-23T04:17:32.544Z,88.35
2022-09-23T04:19:59.391Z,88.05
2022-09-23T04:22:26.248Z,85.55
2022-09-23T04:24:54.773Z,84.82
2022-09-23T04:27:21.633Z,85.80
2022-09-23T04:29:48.504Z,89.95
2022-09-23T04:32:15.414Z,96.28
2022-09-23T04:34:43.396Z,90.28
2022-09-23T04:37:10.217Z,91.38
2022-09-23T04:39:37.101Z,91.35
2022-09-23T04:42:05.587Z,90.93
2022-09-23T04:44:33.073Z,91.85
2022-09-23T04:46:59.994Z,92.68
2022-09-23T04:49:26.952Z,93.88
2022-09-23T04:51:54.295Z,94.30
2022-09-23T04:54:21.175Z,90.07
2022-09-23T04:56:48.052Z,90.18
2022-09-23T04:59:16.537Z,88.88
2022-09-23T05:01:43.794Z,87.78
2022-09-23T05:04:13.936Z,90.07
2022-09-23T05:06:43.986Z,91.57
2022-09-23T05:09:16.624Z,92.53
2022-09-23T05:11:44.290Z,92.85
2022-09-23T05:14:11.242Z,92.03
2022-09-23T05:16:39.579Z,90.40
2022-09-23T05:19:06.717Z,93.93
2022-09-23T05:21:33.603Z,95.13
2022-09-23T05:24:00.955Z,90.40
2022-09-23T05:26:30.289Z,93.82
2022-09-23T05:28:57.188Z,87.80
2022-09-23T05:31:26.237Z,92.50
2022-09-23T05:33:57.369Z,92.90
2022-09-23T05:36:25.521Z,93.50
2022-09-23T05:38:52.723Z,89.38
2022-09-23T05:41:23.129Z,89.35
2022-09-23T05:43:51.671Z,93.05
2022-09-23T05:46:20.154Z,99.65
2022-09-23T05:48:47.625Z,94.63
2022-09-23T05:51:18.457Z,97.40
2022-09-23T05:53:46.055Z,101.63
2022-09-23T05:56:14.190Z,104.18
2022-09-23T05:58:41.179Z,102.85
2022-09-23T06:01:13.312Z,105.25
2022-09-23T06:03:40.991Z,101.15
2022-09-23T06:06:14.663Z,107.45
2022-09-23T06:08:43.041Z,105.65
2022-09-23T06:11:11.632Z,104.13
2022-09-23T06:13:39.517Z,109.65
2022-09-23T06:16:08.102Z,109.88
2022-09-23T06:18:35.706Z,122.63
2022-09-23T06:21:04.810Z,136.13
2022-09-23T06:23:31.988Z,113.45
2022-09-23T06:26:05.344Z,99.20
2022-09-23T06:28:33.898Z,86.07
2022-09-23T06:31:03.289Z,85.93
2022-09-23T06:33:36.828Z,78.63
2022-09-23T06:36:05.791Z,75.20
2022-09-23T06:38:35.788Z,74.80
2022-09-23T06:41:04.283Z,73.80
2022-09-23T06:43:31.331Z,73.30
2022-09-23T06:45:59.586Z,74.55
2022-09-23T06:48:27.409Z,79.90
2022-09-23T06:50:58.148Z,79.85
2022-09-23T06:53:25.615Z,84.60
2022-09-23T06:55:58.814Z,81.38
2022-09-23T06:58:27.645Z,80.88
2022-09-23T07:00:55.163Z,79.75
2022-09-23T07:03:22.301Z,80.97
2022-09-23T07:05:49.154Z,81.18
2022-09-23T07:08:16.462Z,80.40
2022-09-23T07:10:43.275Z,82.40
2022-09-23T07:13:14.178Z,82.55
2022-09-23T07:15:49.415Z,79.80
2022-09-23T07:18:16.424Z,78.30
2022-09-23T07:20:43.244Z,77.85
2022-09-23T07:23:10.146Z,81.45
2022-09-23T07:25:36.977Z,83.85
2022-09-23T07:28:03.877Z,83.53
2022-09-23T07:30:30.735Z,82.70
2022-09-23T07:32:59.055Z,84.30
2022-09-23T07:35:28.114Z,84.38
2022-09-23T07:37:55.002Z,83.63
2022-09-23T07:40:22.077Z,84.72
2022-09-23T07:42:48.970Z,84.07
2022-09-23T07:45:15.806Z,88.93
2022-09-23T07:47:42.722Z,89.80
2022-09-23T07:50:11.597Z,84.78
2022-09-23T07:52:39.392Z,86.25
2022-09-23T07:55:07.130Z,85.90
2022-09-23T07:57:34.133Z,87.78
2022-09-23T08:00:03.835Z,89.75
2022-09-23T08:02:38.496Z,89.20
2022-09-23T08:05:06.716Z,87.28
2022-09-23T08:07:34.981Z,87.88
2022-09-23T08:10:02.684Z,87.28
2022-09-23T08:12:31.613Z,89.75
2022-09-23T08:15:00.407Z,87.30
2022-09-23T08:17:27.484Z,87.82
2022-09-23T08:19:54.349Z,87.10
2022-09-23T08:22:21.167Z,87.35
2022-09-23T08:24:49.550Z,86.28
2022-09-23T08:27:16.526Z,88.30
2022-09-23T08:29:43.326Z,88.13
2022-09-23T08:32:10.238Z,88.72
2022-09-23T08:34:37.069Z,86.50
2022-09-23T08:37:04.126Z,95.72
2022-09-23T08:39:31.341Z,91.13
2022-09-23T08:42:11.914Z,94.65
2022-09-23T08:44:47.047Z,100.97
2022-09-23T08:47:20.252Z,94.50
2022-09-23T08:49:59.430Z,96.88
2022-09-23T08:52:33.349Z,104.30
2022-09-23T08:55:01.701Z,132.93
2022-09-23T08:57:42.406Z,125.97
2022-09-23T09:00:18.801Z,110.13
2022-09-23T09:02:45.934Z,103.35
2022-09-23T09:05:16.990Z,97.85
2022-09-23T09:07:44.650Z,95.75
2022-09-23T09:10:18.741Z,99.93
2022-09-23T09:12:50.406Z,97.47
2022-09-23T09:15:24.329Z,95.90
2022-09-23T09:18:01.193Z,95.15
2022-09-23T09:20:38.966Z,94.38
2022-09-23T09:23:15.585Z,94.53
2022-09-23T09:25:44.789Z,94.72
2022-09-23T09:28:19.111Z,94.15
2022-09-23T09:30:50.436Z,95.30
2022-09-23T09:36:03.948Z,93.63
2022-09-23T09:38:31.850Z,94.20
2022-09-23T09:41:09.166Z,93.78
2022-09-23T09:43:44.043Z,93.93
2022-09-23T09:46:26.412Z,94.47
2022-09-23T09:48:57.942Z,94.43
2022-09-23T09:51:27.399Z,94.82
2022-09-23T09:53:56.081Z,94.93
2022-09-23T09:56:31.202Z,94.60
2022-09-23T09:59:02.007Z,94.70
2022-09-23T10:01:31.145Z,95.18
2022-09-23T10:04:00.771Z,95.13
2022-09-23T10:06:29.560Z,95.88
2022-09-23T10:09:15.267Z,95.75
2022-09-23T10:11:44.580Z,94.70
2022-09-23T10:14:17.574Z,95.53
2022-09-23T10:16:45.571Z,95.30
2022-09-23T10:19:22.106Z,95.43
2022-09-23T10:21:57.045Z,96.00
2022-09-23T10:24:26.083Z,95.20
2022-09-23T10:26:58.084Z,95.82
2022-09-23T10:29:31.037Z,95.47
2022-09-23T10:32:25.585Z,95.53
2022-09-23T10:34:55.666Z,95.90
2022-09-23T10:37:37.461Z,96.15
2022-09-23T10:40:33.811Z,96.60
2022-09-23T10:43:36.716Z,96.05
2022-09-23T10:46:26.744Z,96.57
2022-09-23T10:49:16.574Z,96.15
2022-09-23T10:51:52.129Z,96.10
2022-09-23T10:54:31.764Z,95.80
2022-09-23T10:57:27.522Z,95.70
2022-09-23T11:00:02.555Z,96.10
2022-09-23T11:02:55.454Z,96.25
2022-09-23T11:05:41.506Z,95.00
2022-09-23T11:08:27.502Z,94.05
2022-09-23T11:11:09.958Z,94.25
2022-09-23T11:13:54.153Z,93.70
2022-09-23T11:16:32.045Z,93.78
2022-09-23T11:19:12.447Z,95.43
2022-09-23T11:22:14.100Z,94.80
2022-09-23T11:27:27.403Z,94.10
2022-09-23T11:30:03.406Z,94.00
2022-09-23T11:32:55.867Z,93.57
2022-09-23T11:35:29.477Z,94.15
2022-09-23T11:38:02.115Z,93.88
2022-09-23T11:40:33.070Z,94.30
2022-09-23T11:43:04.249Z,93.88
2022-09-23T11:45:34.641Z,93.03
2022-09-23T11:48:09.772Z,93.37
2022-09-23T11:50:42.976Z,93.45
2022-09-23T11:53:18.790Z,93.53
2022-09-23T11:55:58.027Z,93.53
2022-09-23T11:58:29.657Z,93.18
2022-09-23T12:03:44.477Z,93.75
2022-09-23T12:06:18.631Z,93.95
2022-09-23T12:08:45.655Z,93.63
2022-09-23T12:11:25.368Z,93.45
2022-09-23T12:14:05.258Z,93.50
2022-09-23T12:16:50.723Z,93.88
2022-09-23T12:19:38.765Z,93.85
2022-09-23T12:22:25.659Z,92.97
2022-09-23T12:24:59.581Z,93.53
2022-09-23T12:27:32.618Z,93.35
2022-09-23T12:30:02.988Z,93.00
2022-09-23T12:32:30.980Z,93.33
2022-09-23T12:34:58.268Z,93.53
2022-09-23T12:37:31.678Z,93.22
2022-09-23T12:40:02.246Z,93.25
2022-09-23T12:42:31.324Z,93.60
2022-09-23T12:45:34.805Z,93.25
2022-09-23T12:48:03.244Z,92.03
2022-09-23T12:51:13.362Z,93.07
2022-09-23T12:54:01.626Z,92.28
2022-09-23T12:56:59.176Z,92.72
2022-09-23T12:59:28.209Z,93.70
2022-09-23T13:01:56.250Z,94.15
2022-09-23T13:05:01.184Z,94.57
2022-09-23T13:07:32.068Z,99.38
2022-09-23T13:10:08.964Z,96.88
2022-09-23T13:12:39.526Z,96.20
2022-09-23T13:15:17.002Z,96.80
2022-09-23T13:17:43.914Z,98.65
2022-09-23T13:20:38.283Z,93.45
2022-09-23T13:23:24.181Z,95.22
2022-09-23T13:25:55.620Z,95.07
2022-09-23T13:28:41.727Z,95.65
2022-09-23T13:31:15.960Z,95.65
2022-09-23T13:33:46.177Z,96.10
2022-09-23T13:36:16.326Z,95.50
2022-09-23T13:38:43.626Z,95.47
2022-09-23T13:41:15.231Z,96.53
2022-09-23T13:43:45.377Z,96.57
2022-09-23T13:46:16.266Z,102.20
2022-09-23T13:48:45.362Z,101.05
2022-09-23T13:51:21.722Z,103.70
2022-09-23T13:53:53.691Z,111.40
2022-09-23T13:56:24.915Z,113.32
2022-09-23T13:58:52.354Z,110.80
2022-09-23T14:01:24.486Z,113.03
2022-09-23T14:03:51.497Z,117.45
2022-09-23T14:06:18.554Z,119.22
2022-09-23T14:08:48.289Z,119.20
2022-09-23T14:11:16.574Z,116.13
2022-09-23T14:13:47.045Z,109.03
2022-09-23T14:16:16.079Z,106.00
2022-09-23T14:18:45.418Z,105.82
2022-09-23T14:21:30.251Z,103.70
2022-09-23T14:23:57.165Z,102.57
2022-09-23T14:26:24.789Z,102.82
2022-09-23T14:28:53.994Z,102.25
2022-09-23T14:31:20.983Z,99.88
2022-09-23T14:33:47.943Z,99.22
2022-09-23T14:36:36.336Z,98.18
2022-09-23T14:39:05.270Z,97.28
2022-09-23T14:41:37.156Z,97.82
2022-09-23T14:44:07.338Z,96.68
2022-09-23T14:46:37.027Z,98.18
2022-09-23T14:49:07.757Z,98.10
2022-09-23T14:51:44.600Z,97.45
2022-09-23T14:54:35.266Z,96.72
2022-09-23T14:57:05.938Z,97.90
2022-09-23T14:59:36.626Z,98.53
2022-09-23T15:02:31.430Z,94.28
2022-09-23T15:05:14.650Z,94.78
2022-09-23T15:07:44.077Z,96.63
2022-09-23T15:10:19.963Z,94.22
2022-09-23T15:12:49.094Z,93.75
2022-09-23T15:15:18.749Z,94.57
2022-09-23T15:17:46.628Z,93.72
2022-09-23T15:20:23.924Z,94.47
2022-09-23T15:22:54.086Z,86.88
2022-09-23T15:25:28.090Z,85.00
2022-09-23T15:28:01.098Z,84.60
2022-09-23T15:30:31.580Z,86.55
2022-09-23T15:32:58.590Z,91.20
2022-09-23T15:35:26.704Z,92.13
2022-09-23T15:37:58.442Z,92.00
2022-09-23T15:40:27.259Z,92.38
2022-09-23T15:42:56.388Z,91.45
2022-09-23T15:45:31.451Z,91.75
2022-09-23T15:48:03.259Z,90.38
2022-09-23T15:50:31.325Z,93.22
2022-09-23T15:52:58.326Z,91.00
2022-09-23T15:55:25.294Z,89.97
2022-09-23T15:57:52.671Z,89.68
2022-09-23T16:00:19.873Z,88.88
2022-09-23T16:02:49.398Z,90.00
2022-09-23T16:05:26.648Z,90.20
2022-09-23T16:07:53.519Z,89.03
2022-09-23T16:10:22.067Z,90.85
2022-09-23T16:12:49.948Z,90.38
2022-09-23T16:15:19.552Z,90.78
2022-09-23T16:17:47.801Z,89.75
2022-09-23T16:20:16.869Z,91.63
2022-09-23T16:22:48.296Z,91.80
2022-09-23T16:27:42.469Z,94.72
2022-09-23T16:30:11.008Z,94.75
2022-09-23T16:32:38.242Z,96.40
2022-09-23T16:35:08.438Z,97.72
2022-09-23T16:37:35.345Z,96.90
2022-09-23T16:40:04.241Z,97.97
2022-09-23T16:42:31.220Z,98.45
2022-09-23T16:44:58.039Z,97.63
2022-09-23T16:47:24.993Z,99.05
2022-09-23T16:49:51.857Z,102.18
2022-09-23T16:52:20.098Z,105.18
2022-09-23T16:54:48.037Z,107.65
2022-09-23T16:57:15.141Z,112.07
2022-09-23T17:00:00.413Z,156.32
2022-09-23T17:02:45.810Z,172.25
2022-09-23T17:05:16.390Z,222.73
2022-09-23T17:07:44.807Z,130.30
2022-09-23T17:10:12.015Z,126.55
2022-09-23T17:12:38.858Z,121.32
2022-09-23T17:15:07.432Z,117.22
2022-09-23T17:17:37.058Z,114.35
2022-09-23T17:20:05.823Z,111.63
2022-09-23T17:22:33.617Z,102.85
2022-09-23T17:25:03.869Z,103.35
2022-09-23T17:27:31.993Z,107.10
2022-09-23T17:29:59.120Z,104.47
2022-09-23T17:32:26.774Z,108.75
2022-09-23T17:34:53.606Z,107.18
2022-09-23T17:37:20.418Z,106.63
2022-09-23T17:39:47.291Z,99.95
2022-09-23T17:42:15.706Z,103.82
2022-09-23T17:44:42.619Z,92.68
2022-09-23T17:47:10.571Z,92.10
2022-09-23T17:49:37.392Z,94.03
2022-09-23T17:52:05.779Z,92.70
2022-09-23T17:54:32.772Z,89.68
2022-09-23T17:56:59.962Z,88.13
2022-09-23T17:59:28.468Z,88.85
2022-09-23T18:01:55.408Z,88.55
2022-09-23T18:04:22.401Z,89.30
2022-09-23T18:06:49.276Z,107.03
2022-09-23T18:09:16.106Z,99.65
2022-09-23T18:11:45.094Z,93.28
2022-09-23T18:14:15.560Z,88.85
2022-09-23T18:16:45.820Z,91.50
2022-09-23T18:19:14.583Z,93.22
2022-09-23T18:21:43.304Z,90.10
2022-09-23T18:24:31.187Z,89.75
2022-09-23T18:26:59.886Z,89.13
2022-09-23T18:29:26.996Z,88.53
2022-09-23T18:31:55.408Z,89.55
2022-09-23T18:34:23.673Z,88.22
2022-09-23T18:36:50.852Z,88.97
2022-09-23T18:39:18.031Z,88.57
2022-09-23T18:41:44.906Z,88.18
2022-09-23T18:44:11.822Z,88.53
2022-09-23T18:46:38.763Z,89.63
2022-09-23T18:49:25.651Z,92.43
2022-09-23T18:51:55.600Z,96.20
2022-09-23T18:54:23.168Z,92.93
2022-09-23T18:56:52.533Z,88.72
2022-09-23T18:59:21.306Z,90.10
2022-09-23T19:01:50.187Z,87.05
2022-09-23T19:04:20.777Z,87.40
2022-09-23T19:06:48.061Z,85.85
2022-09-23T19:09:15.961Z,83.25
2022-09-23T19:11:43.012Z,82.07
2022-09-23T19:14:11.491Z,83.05
2022-09-23T19:16:39.615Z,81.63
2022-09-23T19:19:07.135Z,81.50
2022-09-23T19:21:35.717Z,81.70
2022-09-23T19:24:05.080Z,80.88
2022-09-23T19:26:34.858Z,81.10
2022-09-23T19:29:03.245Z,81.78
2022-09-23T19:31:33.433Z,81.15
2022-09-23T19:34:02.402Z,80.75
2022-09-23T19:36:30.967Z,80.53
2022-09-23T19:39:02.905Z,81.00
2022-09-23T19:41:35.445Z,82.50
2022-09-23T19:44:03.832Z,80.38
2022-09-23T19:46:32.464Z,80.32
2022-09-23T19:49:00.486Z,79.80
2022-09-23T19:51:28.329Z,79.93
2022-09-23T19:53:55.137Z,80.72
2022-09-23T19:56:23.514Z,82.80
2022-09-23T19:58:54.261Z,82.30
2022-09-23T20:01:21.808Z,81.20
2022-09-23T20:03:49.487Z,80.18
2022-09-23T20:06:17.567Z,80.63
2022-09-23T20:08:45.022Z,80.30
2022-09-23T20:11:13.715Z,80.63
2022-09-23T20:13:49.602Z,79.95
2022-09-23T20:16:18.136Z,79.88
2022-09-23T20:18:46.791Z,80.88
2022-09-23T20:21:15.425Z,81.03
2022-09-23T20:23:42.707Z,83.82
2022-09-23T20:26:28.938Z,80.88
2022-09-23T20:29:00.931Z,80.63
2022-09-23T20:31:28.822Z,81.18
2022-09-23T20:33:58.501Z,81.47
2022-09-23T20:36:25.824Z,85.85
2022-09-23T20:38:56.427Z,84.07
2022-09-23T20:41:23.421Z,82.72
2022-09-23T20:43:53.443Z,85.60
2022-09-23T20:46:24.890Z,82.88
2022-09-23T20:48:52.168Z,82.43
2022-09-23T20:51:18.979Z,82.20
2022-09-23T20:53:48.485Z,82.47
2022-09-23T20:56:16.496Z,81.97
2022-09-23T20:58:44.575Z,81.57
2022-09-23T21:01:11.907Z,82.90
2022-09-23T21:03:41.875Z,82.03
2022-09-23T21:06:10.781Z,82.22
2022-09-23T21:08:38.018Z,82.57
2022-09-23T21:11:08.067Z,81.80
2022-09-23T21:13:35.321Z,82.30
2022-09-23T21:16:03.070Z,82.35
2022-09-23T21:18:30.145Z,81.60
2022-09-23T21:20:59.730Z,81.97
2022-09-23T21:23:27.537Z,81.75
2022-09-23T21:26:00.337Z,81.50
2022-09-23T21:28:30.963Z,81.05
2022-09-23T21:30:58.731Z,81.03
2022-09-23T21:33:25.902Z,80.57
2022-09-23T21:35:54.447Z,80.47
2022-09-23T21:38:23.124Z,79.07
2022-09-23T21:40:55.791Z,80.95
2022-09-23T21:43:23.595Z,84.82
2022-09-23T21:45:56.997Z,84.07
2022-09-23T21:48:24.333Z,87.03
2022-09-23T21:50:54.960Z,86.28
2022-09-23T21:53:23.888Z,84.03
2022-09-23T21:55:51.148Z,82.65
2022-09-23T21:58:18.054Z,82.20
2022-09-23T22:00:45.253Z,83.28
2022-09-23T22:03:12.374Z,85.82
2022-09-23T22:05:44.015Z,82.40
2022-09-23T22:10:38.988Z,85.97
2022-09-23T22:13:12.543Z,82.97
2022-09-23T22:15:39.867Z,81.93
2022-09-23T22:18:06.764Z,81.68
2022-09-23T22:20:34.222Z,81.35
2022-09-23T22:23:01.128Z,79.72
2022-09-23T22:25:28.860Z,80.60
2022-09-23T22:28:15.860Z,80.32
2022-09-23T22:31:01.038Z,80.88
2022-09-23T22:33:27.954Z,81.32
2022-09-23T22:36:01.741Z,81.25
2022-09-23T22:38:28.805Z,80.95
2022-09-23T22:40:55.735Z,80.82
2022-09-23T22:43:24.004Z,80.90
2022-09-23T22:45:51.606Z,80.05
2022-09-23T22:48:19.894Z,79.70
2022-09-23T22:50:46.803Z,80.50
2022-09-23T22:53:13.959Z,79.45
2022-09-23T22:55:42.117Z,78.90
2022-09-23T22:58:30.768Z,78.10
2022-09-23T23:00:58.228Z,78.00
2022-09-23T23:03:27.047Z,77.28
2022-09-23T23:05:57.620Z,77.78
2022-09-23T23:08:24.672Z,80.88
2022-09-23T23:10:51.648Z,78.38
2022-09-23T23:13:19.224Z,78.30
2022-09-23T23:15:46.109Z,78.93
2022-09-23T23:18:14.909Z,76.95
2022-09-23T23:20:41.825Z,77.10
2022-09-23T23:23:08.672Z,76.80
2022-09-23T23:25:35.483Z,76.90
2022-09-23T23:28:05.590Z,76.60
2022-09-23T23:30:33.603Z,77.43
2022-09-23T23:33:00.582Z,78.25
2022-09-23T23:35:28.841Z,78.50
2022-09-23T23:37:55.768Z,79.45
2022-09-23T23:40:22.842Z,79.60
2022-09-23T23:42:49.767Z,82.43
2022-09-23T23:45:17.429Z,79.90
2022-09-23T23:47:44.621Z,79.38
2022-09-23T23:50:11.495Z,79.55
2022-09-23T23:52:39.789Z,78.80
2022-09-23T23:55:07.112Z,79.55
2022-09-23T23:57:33.973Z,79.03
